Sunday, October 22, 2017, 8:43 PM EDT
Back to Local

KHVN, Tweed-new Haven Airport

Location: East Haven, CT, United States Lat: 41.267
Local Time: 8:43 PM EDT ( 0:43 GMT) Lon: -72.883
Time Zone: US/Eastern Elev: 13 ft

Show me the last for .
Show Decoded

2017-10-22 19:53 METAR KHVN 222353Z 18004KT 10SM CLR 16/12 A3038 RMK AO2 SLP287 T01560122 10239
                 20133 53003 =
2017-10-22 18:53 METAR KHVN 222253Z 00000KT 10SM CLR 14/11 A3038 RMK AO2 SLP286 T01440111 =
2017-10-22 17:53 METAR KHVN 222153Z 00000KT 10SM CLR 17/11 A3037 RMK AO2 SLP284 T01670111 =
2017-10-22 16:53 METAR KHVN 222053Z 14003KT 10SM CLR 21/12 A3037 RMK AO2 SLP284 T02110122 56004 =
2017-10-22 15:53 METAR KHVN 221953Z 18004KT 10SM SCT150 BKN250 23/09 A3037 RMK AO2 SLP284
                 T02280094 =
2017-10-22 14:53 METAR KHVN 221853Z 16004KT 10SM SCT250 23/08 A3037 RMK AO2 SLP284 T02330078 =
2017-10-22 13:53 METAR KHVN 221753Z 17005KT 10SM FEW150 SCT250 22/08 A3038 RMK AO2 SLP288
                 T02220078 10222 20078 58010 =
2017-10-22 12:53 METAR KHVN 221653Z 20004KT 10SM SCT250 21/07 A3040 RMK AO2 SLP294 T02060067 =
2017-10-22 11:53 METAR KHVN 221553Z 28003KT 10SM CLR 19/11 A3040 RMK AO2 SLP295 T01940106 =
2017-10-22 10:53 METAR KHVN 221453Z 00000KT 10SM SCT250 19/11 A3041 RMK AO2 SLP298 T01890106
                 50003 =
2017-10-22 09:53 METAR KHVN 221353Z 36003KT 10SM CLR 16/09 A3042 RMK AO2 SLP301 T01610089 =
2017-10-22 08:53 METAR KHVN 221253Z 00000KT 10SM CLR 13/11 A3042 RMK AO2 SLP302 T01280106 =
2017-10-22 07:53 METAR KHVN 221153Z 00000KT 10SM CLR 08/07 A3040 RMK AO2 SLP295 T00780067 10089
                 20061 53015 =
2017-10-22 06:53 METAR KHVN 221053Z 00000KT 10SM CLR 07/06 A3038 RMK AO2 SLP288 T00670056 =
2017-10-22 05:53 METAR KHVN 220953Z 00000KT 10SM CLR 07/06 A3037 RMK AO2 SLP285 T00720056 =
2017-10-22 04:53 METAR KHVN 220853Z AUTO 00000KT 10SM CLR 07/06 A3036 RMK AO2 SLP280 T00720061
                 53001 =
2017-10-22 03:53 METAR KHVN 220753Z AUTO 00000KT 10SM CLR 08/06 A3035 RMK AO2 SLP278 T00780061 =
2017-10-22 02:53 METAR KHVN 220653Z AUTO 00000KT 10SM CLR 08/07 A3035 RMK AO2 SLP278 T00780067 =
2017-10-22 01:53 METAR KHVN 220553Z AUTO 00000KT 10SM CLR 08/07 A3036 RMK AO2 SLP279 T00830067
                 10183 20083 50001 =
2017-10-22 00:53 METAR KHVN 220453Z AUTO 00000KT 10SM CLR 09/07 A3036 RMK AO2 SLP279 T00890072
                 402220050 =
2017-10-21 23:53 METAR KHVN 220353Z AUTO 00000KT 10SM CLR 09/08 A3035 RMK AO2 SLP278 T00940078 =
2017-10-21 22:53 METAR KHVN 220253Z AUTO 00000KT 10SM CLR 10/08 A3035 RMK AO2 SLP278 T01000083
                 51005 =
2017-10-21 21:53 METAR KHVN 220153Z 00000KT 10SM SCT250 13/09 A3035 RMK AO2 SLP278 T01280089 =
2017-10-21 20:53 METAR KHVN 220053Z 00000KT 10SM SCT250 18/12 A3034 RMK AO2 SLP275 T01780122 =

Support USWX by starting your Amazon purchase here.